Time;durP1;ratioP1;P1;durP2;ratioP2;P2;SDS_P1;SDS_P2;PMS_P1;PMS_P2;Temp;Humidity;BMP_temperature;BMP_pressure;BME280_temperature;BME280_humidity;BME280_pressure;Samples;Min_cycle;Max_cycle;Signal;HPM_P1;HPM_P2
2021/12/20 00:01:51;;;;;;;6.00;0.98;;;;;;;2.28;100.00;102330.88;6318574;28;20070;-72
2021/12/20 00:04:53;;;;;;;3.63;1.17;;;;;;;2.25;100.00;102338.63;6314364;28;20495;-73
2021/12/20 00:07:55;;;;;;;3.17;0.73;;;;;;;2.21;100.00;102334.28;6322389;28;20059;-73
2021/12/20 00:10:56;;;;;;;8.13;0.95;;;;;;;2.15;100.00;102338.56;6322664;28;20044;-75
2021/12/20 00:13:57;;;;;;;5.03;0.77;;;;;;;2.14;100.00;102337.72;6321745;28;20449;-75
2021/12/20 00:16:59;;;;;;;3.30;1.05;;;;;;;2.08;100.00;102334.19;6322603;28;20055;-76
2021/12/20 00:20:01;;;;;;;18.25;1.27;;;;;;;1.99;100.00;102325.47;6322177;28;20051;-75
2021/12/20 00:23:04;;;;;;;7.88;1.35;;;;;;;1.97;100.00;102328.94;6322291;28;20044;-75
2021/12/20 00:26:06;;;;;;;7.78;1.35;;;;;;;1.92;100.00;102321.13;6322065;28;20438;-73
2021/12/20 00:29:07;;;;;;;9.48;1.42;;;;;;;1.90;100.00;102332.31;6322104;28;20047;-73
2021/12/20 00:32:09;;;;;;;10.68;2.60;;;;;;;1.81;100.00;102327.06;6313675;28;20411;-74
2021/12/20 00:35:13;;;;;;;4.18;1.35;;;;;;;1.72;100.00;102331.31;6296761;28;20507;-72
2021/12/20 00:41:34;;;;;;;;;;;;;;;1.61;100.00;102342.44;6296935;28;20049;-73
2021/12/20 00:44:35;;;;;;;6.45;1.13;;;;;;;1.53;100.00;102335.47;6296929;28;19927;-73
2021/12/20 00:47:37;;;;;;;3.40;1.30;;;;;;;1.46;100.00;102353.53;6296552;28;20058;-73
2021/12/20 00:50:41;;;;;;;2.92;1.17;;;;;;;1.44;100.00;102350.03;6296543;28;20044;-73
2021/12/20 00:53:43;;;;;;;1.77;0.80;;;;;;;1.37;100.00;102354.31;6296388;28;20044;-73
2021/12/20 00:56:44;;;;;;;7.15;1.73;;;;;;;1.32;100.00;102352.50;6296456;28;20044;-73
2021/12/20 00:59:45;;;;;;;3.22;1.63;;;;;;;1.26;100.00;102349.00;6296376;28;20392;-73
2021/12/20 01:02:47;;;;;;;9.20;1.40;;;;;;;1.20;100.00;102361.03;6296325;28;20048;-73
2021/12/20 01:05:50;;;;;;;8.15;1.20;;;;;;;1.16;100.00;102362.69;6296236;28;20045;-73
2021/12/20 01:08:52;;;;;;;1.80;0.82;;;;;;;1.17;100.00;102361.84;6296307;28;20045;-73
2021/12/20 01:12:00;;;;;;;1.15;0.70;;;;;;;1.13;100.00;102372.16;6295885;28;20041;-73
2021/12/20 01:15:03;;;;;;;5.47;1.05;;;;;;;1.10;100.00;102367.81;6296539;28;20052;-75
2021/12/20 01:18:06;;;;;;;1.98;1.10;;;;;;;1.03;100.00;102358.22;6296437;28;20052;-75
2021/12/20 01:21:09;;;;;;;5.10;0.85;;;;;;;1.05;100.00;102360.84;6295803;28;20055;-73
2021/12/20 01:24:11;;;;;;;4.97;1.27;;;;;;;1.06;100.00;102360.00;6298657;28;20048;-73
2021/12/20 01:27:12;;;;;;;9.13;1.65;;;;;;;1.02;100.00;102367.72;6301296;28;20057;-73
2021/12/20 01:30:16;;;;;;;2.28;1.30;;;;;;;1.00;100.00;102368.56;6301068;28;20056;-73
2021/12/20 01:33:17;;;;;;;2.35;0.95;;;;;;;0.96;100.00;102371.97;6300776;28;20496;-73
2021/12/20 01:36:20;;;;;;;2.63;0.90;;;;;;;0.93;100.00;102365.00;6301001;28;20068;-73
2021/12/20 01:39:21;;;;;;;6.25;1.75;;;;;;;0.93;100.00;102366.75;6300724;28;20053;-73
2021/12/20 01:42:23;;;;;;;2.05;0.93;;;;;;;0.96;100.00;102377.13;6315933;28;20040;-73
2021/12/20 01:45:27;;;;;;;1.50;1.00;;;;;;;0.95;100.00;102373.69;6317595;28;20051;-72
2021/12/20 01:48:30;;;;;;;1.88;0.88;;;;;;;0.93;100.00;102377.97;6326217;28;20044;-73
2021/12/20 01:51:47;;;;;;;0.38;0.38;;;;;;;0.91;100.00;102369.31;6318172;28;20044;-73
2021/12/20 01:54:48;;;;;;;5.25;1.75;;;;;;;0.86;100.00;102383.88;6313159;28;20130;-73
2021/12/20 01:57:50;;;;;;;1.23;0.55;;;;;;;0.84;100.00;102393.38;6314970;28;20040;-73
2021/12/20 02:04:41;;;;;;;8.48;1.08;;;;;;;0.70;100.00;102393.19;6343253;27;20358;-75
2021/12/20 02:07:51;;;;;;;2.67;1.40;;;;;;;0.67;100.00;102389.69;6321129;28;20139;-75
2021/12/20 02:10:56;;;;;;;6.70;1.00;;;;;;;0.60;100.00;102393.03;6318223;28;20102;-74
2021/12/20 02:13:57;;;;;;;3.55;0.88;;;;;;;0.58;100.00;102393.00;6318423;28;20056;-74
2021/12/20 02:16:59;;;;;;;3.47;1.13;;;;;;;0.58;100.00;102392.13;6317918;28;20059;-75
2021/12/20 02:20:04;;;;;;;1.95;1.00;;;;;;;0.56;100.00;102404.19;6317912;28;20048;-75
2021/12/20 02:23:07;;;;;;;5.07;1.10;;;;;;;0.49;100.00;102383.38;6317921;28;20044;-74
2021/12/20 02:26:11;;;;;;;1.13;0.73;;;;;;;0.48;100.00;102386.81;6317597;28;20462;-75
2021/12/20 02:29:12;;;;;;;1.95;0.57;;;;;;;0.44;100.00;102385.03;6317742;28;20055;-75
2021/12/20 02:38:56;;;;;;;6.30;1.00;;;;;;;0.23;100.00;102393.34;6317710;28;20510;-74
2021/12/20 02:41:57;;;;;;;2.40;0.77;;;;;;;0.24;100.00;102383.88;6316946;28;20044;-75
2021/12/20 02:45:09;;;;;;;4.82;0.82;;;;;;;0.22;100.00;102377.81;6317567;28;20138;-74
2021/12/20 02:48:11;;;;;;;0.82;0.75;;;;;;;0.18;100.00;102381.19;6317339;28;20047;-74
2021/12/20 02:51:13;;;;;;;1.13;0.65;;;;;;;0.19;100.00;102385.53;6317076;28;20055;-74
2021/12/20 02:54:15;;;;;;;2.10;0.30;;;;;;;0.15;100.00;102388.91;6317287;28;20106;-75
2021/12/20 02:57:17;;;;;;;5.88;1.17;;;;;;;0.09;100.00;102387.09;6317151;28;20055;-74
2021/12/20 03:00:18;;;;;;;1.35;0.75;;;;;;;0.03;100.00;102391.28;6317023;28;20045;-74
2021/12/20 03:03:20;;;;;;;3.05;0.95;;;;;;;-0.07;100.00;102395.44;6309117;28;20041;-75
2021/12/20 03:06:26;;;;;;;2.92;0.93;;;;;;;-0.14;100.00;102383.25;6291730;28;20045;-75
2021/12/20 03:09:32;;;;;;;0.57;0.50;;;;;;;-0.15;100.00;102386.69;6291455;28;20053;-75
2021/12/20 03:12:33;;;;;;;4.40;1.45;;;;;;;-0.22;100.00;102383.13;6291313;28;20045;-74
2021/12/20 03:15:35;;;;;;;2.25;1.17;;;;;;;-0.19;100.00;102385.75;6276648;28;20049;-74
2021/12/20 03:18:36;;;;;;;2.58;1.88;;;;;;;-0.19;100.00;102372.81;6275138;28;20056;-75
2021/12/20 03:21:39;;;;;;;1.05;0.88;;;;;;;-0.19;100.00;102374.53;6277505;28;20492;-75
2021/12/20 03:24:41;;;;;;;4.38;1.27;;;;;;;-0.16;100.00;102372.88;6299152;28;20048;-75
2021/12/20 03:27:42;;;;;;;2.55;0.60;;;;;;;-0.15;100.00;102376.34;6299188;28;20049;-74
2021/12/20 03:30:44;;;;;;;6.15;0.80;;;;;;;-0.20;100.00;102372.81;6295226;28;20047;-74
2021/12/20 03:33:45;;;;;;;2.95;1.58;;;;;;;-0.28;100.00;102370.09;6288494;28;20132;-73
2021/12/20 03:36:48;;;;;;;3.47;0.88;;;;;;;-0.26;100.00;102371.00;6286096;28;20056;-75
2021/12/20 03:39:49;;;;;;;0.85;0.52;;;;;;;-0.19;100.00;102380.56;6292814;28;20510;-75
2021/12/20 03:42:51;;;;;;;0.77;0.50;;;;;;;-0.11;100.00;102380.72;6298178;28;20045;-75
2021/12/20 03:45:57;;;;;;;3.45;0.70;;;;;;;-0.13;100.00;102380.72;6299033;28;20488;-74
2021/12/20 03:48:59;;;;;;;1.17;0.85;;;;;;;-0.20;100.00;102375.41;6299019;28;20053;-74
2021/12/20 03:52:04;;;;;;;2.08;0.90;;;;;;;-0.28;100.00;102376.13;6298855;28;20052;-74
2021/12/20 03:55:06;;;;;;;1.42;0.93;;;;;;;-0.30;100.00;102382.13;6297762;28;20044;-75
2021/12/20 03:58:07;;;;;;;1.00;0.88;;;;;;;-0.27;100.00;102377.00;6284438;28;20386;-74
2021/12/20 04:01:12;;;;;;;1.30;0.98;;;;;;;-0.31;100.00;102382.97;6277758;28;20052;-74
2021/12/20 04:04:13;;;;;;;4.50;1.10;;;;;;;-0.34;100.00;102388.94;6296642;28;20033;-75
2021/12/20 04:07:16;;;;;;;1.75;1.05;;;;;;;-0.40;100.00;102391.41;6298589;28;20075;-74
2021/12/20 04:10:17;;;;;;;2.58;1.50;;;;;;;-0.46;100.00;102383.53;6298557;28;20056;-74
2021/12/20 04:13:19;;;;;;;11.93;2.38;;;;;;;-0.43;100.00;102398.22;6283112;28;20511;-75
2021/12/20 04:16:20;;;;;;;6.85;1.20;;;;;;;-0.45;100.00;102395.63;6273833;28;20053;-75
2021/12/20 04:19:21;;;;;;;2.80;1.23;;;;;;;-0.51;100.00;102392.91;6273313;28;20416;-74
2021/12/20 04:22:24;;;;;;;4.38;1.30;;;;;;;-0.51;100.00;102392.91;6272877;28;20056;-74
2021/12/20 04:25:26;;;;;;;0.70;0.68;;;;;;;-0.49;100.00;102391.25;6272460;28;20048;-75
2021/12/20 04:28:27;;;;;;;1.95;0.75;;;;;;;-0.47;100.00;102402.47;6273252;28;20049;-74
2021/12/20 04:31:28;;;;;;;2.38;0.98;;;;;;;-0.58;100.00;102399.69;6274597;28;20049;-75
2021/12/20 04:34:30;;;;;;;5.57;1.55;;;;;;;-0.60;100.00;102401.34;6296643;28;20602;-75
2021/12/20 04:37:33;;;;;;;7.07;2.05;;;;;;;-0.67;100.00;102393.47;6298051;28;20048;-75
2021/12/20 04:40:35;;;;;;;1.85;1.02;;;;;;;-0.68;100.00;102392.63;6297801;28;20049;-75
2021/12/20 04:43:36;;;;;;;1.02;0.60;;;;;;;-0.69;100.00;102396.00;6297897;28;20044;-74
2021/12/20 04:46:38;;;;;;;1.45;0.70;;;;;;;-0.68;100.00;102397.78;6297571;28;20411;-75
2021/12/20 04:49:39;;;;;;;1.67;0.93;;;;;;;-0.70;100.00;102399.44;6297506;28;20462;-75
2021/12/20 04:52:42;;;;;;;1.20;1.00;;;;;;;-0.69;100.00;102402.88;6297598;28;20392;-75
2021/12/20 04:55:43;;;;;;;1.80;0.80;;;;;;;-0.72;100.00;102402.84;6297226;28;20131;-75
2021/12/20 04:58:45;;;;;;;4.95;1.27;;;;;;;-0.73;100.00;102406.25;6297529;28;20044;-75
2021/12/20 05:01:46;;;;;;;1.95;1.00;;;;;;;-0.79;100.00;102405.28;6296904;28;20454;-75
2021/12/20 05:04:48;;;;;;;1.15;0.80;;;;;;;-0.82;100.00;102414.69;6295578;28;20045;-74
2021/12/20 05:07:53;;;;;;;1.40;1.02;;;;;;;-0.85;100.00;102412.91;6297066;28;20052;-75
2021/12/20 05:10:54;;;;;;;2.05;0.93;;;;;;;-0.85;100.00;102414.63;6297061;28;20052;-74
2021/12/20 05:13:56;;;;;;;0.85;0.77;;;;;;;-0.84;100.00;102406.03;6297086;28;20044;-75
2021/12/20 05:16:57;;;;;;;2.35;1.23;;;;;;;-0.91;100.00;102412.81;6297049;28;20048;-75
2021/12/20 05:19:58;;;;;;;3.30;1.20;;;;;;;-0.94;100.00;102425.63;6296737;28;20052;-75
2021/12/20 05:23:02;;;;;;;2.72;1.23;;;;;;;-0.93;100.00;102417.03;6296724;28;20045;-75
2021/12/20 05:26:03;;;;;;;1.65;1.23;;;;;;;-0.94;100.00;102424.75;6296955;28;20198;-75
2021/12/20 05:29:07;;;;;;;1.73;0.75;;;;;;;-0.97;100.00;102435.00;6296693;28;20044;-75
2021/12/20 05:32:09;;;;;;;2.70;1.40;;;;;;;-0.96;100.00;102432.44;6296612;28;20048;-75
2021/12/20 05:35:13;;;;;;;2.30;1.48;;;;;;;-1.00;100.00;102437.50;6280932;28;20377;-75
2021/12/20 05:38:16;;;;;;;5.68;1.23;;;;;;;-0.96;100.00;102440.19;6279635;28;20055;-75
2021/12/20 05:41:17;;;;;;;10.02;1.20;;;;;;;-0.98;100.00;102434.16;6296092;28;20044;-75
2021/12/20 05:44:19;;;;;;;3.30;1.30;;;;;;;-0.93;100.00;102434.25;6296607;28;20044;-75
2021/12/20 05:47:22;;;;;;;1.38;1.08;;;;;;;-0.91;100.00;102438.59;6296427;28;20060;-75
2021/12/20 05:50:24;;;;;;;3.22;1.33;;;;;;;-0.91;100.00;102443.78;6277827;28;20045;-75
2021/12/20 05:53:26;;;;;;;2.35;1.05;;;;;;;-0.97;100.00;102446.19;6296130;28;20055;-75
2021/12/20 05:56:28;;;;;;;2.47;0.98;;;;;;;-1.00;100.00;102453.00;6296690;28;20048;-75
2021/12/20 05:59:29;;;;;;;1.60;1.15;;;;;;;-1.06;100.00;102457.19;6296428;28;20049;-75
2021/12/20 06:02:30;;;;;;;2.00;0.73;;;;;;;-1.09;100.00;102449.41;6296086;28;20056;-75
2021/12/20 06:05:32;;;;;;;3.15;1.75;;;;;;;-1.20;100.00;102444.84;6295416;28;20416;-75
2021/12/20 06:08:35;;;;;;;1.92;1.00;;;;;;;-1.21;100.00;102446.53;6296185;28;20044;-75
2021/12/20 06:11:36;;;;;;;0.80;0.70;;;;;;;-1.14;100.00;102453.56;6296158;28;20479;-76
2021/12/20 06:14:38;;;;;;;1.77;1.10;;;;;;;-1.07;100.00;102459.75;6292852;28;20515;-76
2021/12/20 06:17:40;;;;;;;1.00;0.88;;;;;;;-1.10;100.00;102457.94;6296145;28;20052;-75
2021/12/20 06:20:44;;;;;;;1.20;1.10;;;;;;;-1.21;100.00;102456.00;6295743;28;20052;-75
2021/12/20 06:23:47;;;;;;;2.45;0.93;;;;;;;-1.22;100.00;102469.72;6296245;28;20143;-75
2021/12/20 06:26:48;;;;;;;4.10;1.63;;;;;;;-1.23;100.00;102470.53;6295978;28;20060;-75
2021/12/20 06:29:50;;;;;;;1.60;1.00;;;;;;;-1.29;100.00;102464.41;6296093;28;20048;-76
2021/12/20 06:32:51;;;;;;;4.93;1.88;;;;;;;-1.31;100.00;102468.69;6295735;28;20055;-75
2021/12/20 06:35:53;;;;;;;1.92;1.08;;;;;;;-1.31;100.00;102463.53;6295325;28;20056;-74
2021/12/20 06:38:57;;;;;;;1.15;0.98;;;;;;;-1.31;100.00;102462.66;6295908;28;20048;-74
2021/12/20 06:41:59;;;;;;;4.78;1.77;;;;;;;-1.37;100.00;102471.09;6295494;28;20231;-75
2021/12/20 06:45:00;;;;;;;1.00;0.90;;;;;;;-1.38;100.00;102473.66;6295445;28;20045;-75
2021/12/20 06:48:02;;;;;;;4.82;1.83;;;;;;;-1.37;100.00;102476.25;6281422;28;20048;-75
2021/12/20 06:51:03;;;;;;;2.08;1.88;;;;;;;-1.42;100.00;102471.81;6286234;28;20041;-75
2021/12/20 06:54:06;;;;;;;1.65;1.40;;;;;;;-1.38;100.00;102477.09;6284467;28;20668;-75
2021/12/20 06:57:07;;;;;;;2.67;1.98;;;;;;;-1.37;100.00;102475.38;6300383;28;20048;-75
2021/12/20 07:00:09;;;;;;;2.28;1.20;;;;;;;-1.37;100.00;102478.81;6300013;28;20052;-76
2021/12/20 07:03:11;;;;;;;1.55;1.02;;;;;;;-1.34;100.00;102465.16;6300106;28;20051;-75
2021/12/20 07:06:12;;;;;;;4.65;2.03;;;;;;;-1.39;100.00;102482.22;6298509;28;20052;-76
2021/12/20 07:09:15;;;;;;;8.60;3.13;;;;;;;-1.36;100.00;102482.31;6276867;28;20495;-76
2021/12/20 07:12:16;;;;;;;1.85;1.13;;;;;;;-1.30;100.00;102488.47;6275197;28;20060;-76
2021/12/20 07:15:18;;;;;;;2.85;2.20;;;;;;;-1.26;100.00;102483.38;6275141;28;20424;-76
2021/12/20 07:18:19;;;;;;;2.22;1.45;;;;;;;-1.26;100.00;102484.25;6275206;28;20060;-76
2021/12/20 07:21:21;;;;;;;3.58;2.00;;;;;;;-1.24;100.00;102497.19;6274660;28;20049;-75
2021/12/20 07:24:23;;;;;;;4.93;1.38;;;;;;;-1.34;100.00;102494.38;6274966;28;20523;-74
2021/12/20 07:27:25;;;;;;;4.15;2.00;;;;;;;-1.33;100.00;102505.56;6274665;28;20060;-75
2021/12/20 07:30:26;;;;;;;5.82;3.10;;;;;;;-1.40;100.00;102509.72;6277119;28;20048;-75
2021/12/20 07:33:27;;;;;;;2.75;2.17;;;;;;;-1.44;100.00;102513.06;6284473;28;20041;-75
2021/12/20 07:36:29;;;;;;;4.93;1.80;;;;;;;-1.46;100.00;102509.53;6294669;28;20044;-75
2021/12/20 07:39:32;;;;;;;3.75;1.85;;;;;;;-1.47;100.00;102509.53;6298684;28;20514;-75
2021/12/20 07:42:33;;;;;;;2.20;1.65;;;;;;;-1.46;100.00;102506.09;6298745;28;20491;-75
2021/12/20 07:45:35;;;;;;;2.95;1.67;;;;;;;-1.48;100.00;102518.09;6299069;28;20411;-74
2021/12/20 07:48:36;;;;;;;6.22;1.75;;;;;;;-1.54;100.00;102516.25;6299019;28;20141;-75
2021/12/20 07:51:37;;;;;;;3.28;1.52;;;;;;;-1.51;100.00;102520.59;6298997;28;20055;-76
2021/12/20 07:54:40;;;;;;;2.33;1.40;;;;;;;-1.49;100.00;102517.22;6299067;28;20412;-75
2021/12/20 07:57:42;;;;;;;7.40;1.90;;;;;;;-1.50;100.00;102518.03;6296947;28;20044;-75
2021/12/20 08:00:43;;;;;;;3.25;1.85;;;;;;;-1.50;100.00;102532.63;6298134;28;20055;-76
2021/12/20 08:03:45;;;;;;;3.67;2.08;;;;;;;-1.47;100.00;102522.41;6298477;28;20055;-74
2021/12/20 08:06:46;;;;;;;3.38;2.10;;;;;;;-1.42;100.00;102520.81;6280802;28;20649;-75
2021/12/20 08:09:50;;;;;;;2.90;1.50;;;;;;;-1.36;100.00;102531.31;6274012;28;20049;-75
2021/12/20 08:12:52;;;;;;;2.97;1.65;;;;;;;-1.35;100.00;102525.31;6273675;28;20136;-75
2021/12/20 08:15:54;;;;;;;3.10;1.20;;;;;;;-1.31;100.00;102532.28;6295119;28;20075;-75
2021/12/20 08:18:55;;;;;;;3.10;2.30;;;;;;;-1.31;100.00;102527.13;6298356;28;20048;-75
2021/12/20 08:21:56;;;;;;;2.67;1.60;;;;;;;-1.30;100.00;102529.72;6298024;28;20483;-76
2021/12/20 08:24:59;;;;;;;3.17;1.52;;;;;;;-1.25;100.00;102528.97;6298308;28;20048;-74
2021/12/20 08:28:02;;;;;;;2.95;1.67;;;;;;;-1.23;100.00;102532.44;6298115;28;20056;-75
2021/12/20 08:31:03;;;;;;;2.80;1.55;;;;;;;-1.27;100.00;102528.94;6291876;28;20071;-76
2021/12/20 08:34:05;;;;;;;3.35;1.80;;;;;;;-1.30;100.00;102534.88;6273035;28;20496;-75
2021/12/20 08:37:06;;;;;;;3.63;2.25;;;;;;;-1.23;100.00;102535.03;6293532;28;20055;-75
2021/12/20 08:40:13;;;;;;;1.98;1.60;;;;;;;-1.25;100.00;102535.00;6297592;28;20455;-75
2021/12/20 08:43:15;;;;;;;5.65;1.80;;;;;;;-1.26;100.00;102535.84;6297859;28;20423;-76
2021/12/20 08:46:16;;;;;;;3.50;2.08;;;;;;;-1.23;100.00;102535.88;6297378;28;20055;-75
2021/12/20 08:49:17;;;;;;;2.63;2.25;;;;;;;-1.16;100.00;102542.09;6297953;28;20048;-75
2021/12/20 08:52:19;;;;;;;2.35;1.70;;;;;;;-1.11;100.00;102541.34;6297490;28;20059;-76
2021/12/20 08:55:23;;;;;;;3.95;1.67;;;;;;;-1.06;100.00;102549.19;6297496;28;20044;-75
2021/12/20 08:58:25;;;;;;;2.88;2.13;;;;;;;-1.04;100.00;102557.84;6297577;28;20048;-76
2021/12/20 09:01:26;;;;;;;5.82;2.45;;;;;;;-1.04;100.00;102555.28;6296928;28;20060;-76
2021/12/20 09:04:28;;;;;;;7.32;2.08;;;;;;;-1.05;100.00;102558.66;6297104;28;20048;-76
2021/12/20 09:07:30;;;;;;;3.58;1.58;;;;;;;-0.99;100.00;102569.16;6273324;28;20071;-76
2021/12/20 09:10:34;;;;;;;3.70;2.58;;;;;;;-0.96;100.00;102574.38;6272414;28;20049;-76
2021/12/20 09:13:35;;;;;;;6.32;3.20;;;;;;;-0.91;100.00;102575.38;6271755;28;20056;-75
2021/12/20 09:16:37;;;;;;;2.85;1.77;;;;;;;-0.85;100.00;102569.47;6272385;28;20053;-75
2021/12/20 09:19:38;;;;;;;3.30;1.88;;;;;;;-0.87;100.00;102576.28;6271969;28;20045;-76
2021/12/20 09:22:50;;;;;;;1.70;1.20;;;;;;;-0.82;100.00;102577.28;6280725;28;20056;-75
2021/12/20 09:25:52;;;;;;;4.53;1.83;;;;;;;-0.80;100.00;102573.91;6296531;28;20499;-75
2021/12/20 09:28:54;;;;;;;1.30;1.10;;;;;;;-0.75;100.00;102575.72;6296890;28;20392;-76
2021/12/20 09:31:56;;;;;;;1.92;1.30;;;;;;;-0.72;100.00;102568.06;6296514;28;20542;-75
2021/12/20 09:34:57;;;;;;;2.50;1.52;;;;;;;-0.71;100.00;102564.63;6291636;28;20052;-76
2021/12/20 09:37:59;;;;;;;5.53;1.83;;;;;;;-0.67;100.00;102574.19;6276832;28;20044;-75
2021/12/20 09:41:13;;;;;;;7.40;2.65;;;;;;;-0.61;100.00;102575.19;6296133;28;20051;-75
2021/12/20 09:44:18;;;;;;;1.95;1.38;;;;;;;-0.56;100.00;102572.69;6295676;28;20044;-76
2021/12/20 09:47:20;;;;;;;3.83;1.73;;;;;;;-0.52;100.00;102575.38;6295931;28;20106;-75
2021/12/20 09:50:21;;;;;;;2.92;1.52;;;;;;;-0.46;100.00;102568.59;6287850;28;20049;-76
2021/12/20 09:53:23;;;;;;;2.05;1.23;;;;;;;-0.39;100.00;102578.22;6296330;28;20462;-76
2021/12/20 09:56:28;;;;;;;3.65;1.30;;;;;;;-0.38;100.00;102579.97;6297073;28;20055;-75
2021/12/20 09:59:31;;;;;;;1.95;1.08;;;;;;;-0.36;100.00;102586.06;6296917;28;20415;-76
2021/12/20 10:02:32;;;;;;;2.10;1.45;;;;;;;-0.30;100.00;102581.00;6296065;28;20054;-76
2021/12/20 10:05:36;;;;;;;1.38;1.27;;;;;;;-0.29;100.00;102585.34;6295211;28;20040;-76
2021/12/20 10:08:48;;;;;;;1.83;1.40;;;;;;;-0.23;100.00;102584.59;6296538;28;20510;-79
2021/12/20 10:11:51;;;;;;;4.22;1.95;;;;;;;-0.17;100.00;102584.72;6296828;28;20049;-76
2021/12/20 10:15:03;;;;;;;2.05;1.58;;;;;;;-0.09;100.00;102580.56;6296880;28;20044;-76
2021/12/20 10:18:05;;;;;;;9.00;1.52;;;;;;;-0.03;100.00;102581.56;6297216;28;20511;-77
2021/12/20 10:21:07;;;;;;;3.75;2.13;;;;;;;0.06;100.00;102587.78;6297462;28;20052;-76
2021/12/20 10:24:08;;;;;;;4.30;1.98;;;;;;;0.06;100.00;102582.59;6297458;28;20041;-76
2021/12/20 10:27:28;;;;;;;2.85;1.30;;;;;;;0.11;100.00;102592.19;6300053;28;20056;-76
2021/12/20 10:30:31;;;;;;;3.33;2.13;;;;;;;0.12;100.00;102585.28;6301133;28;20053;-76
2021/12/20 10:33:34;;;;;;;2.10;1.42;;;;;;;0.15;100.00;102580.19;6301032;28;20057;-76
2021/12/20 10:36:35;;;;;;;2.28;1.73;;;;;;;0.22;100.00;102587.22;6300263;28;20056;-76
2021/12/20 10:39:41;;;;;;;1.10;1.00;;;;;;;0.28;100.00;102574.41;6300738;28;20454;-76
2021/12/20 10:42:44;;;;;;;7.13;1.67;;;;;;;0.36;100.00;102580.56;6299860;28;20045;-76
2021/12/20 10:45:45;;;;;;;4.88;2.17;;;;;;;0.42;100.00;102572.06;6300281;28;20048;-76
2021/12/20 10:48:49;;;;;;;1.92;1.40;;;;;;;0.49;100.00;102569.59;6300557;28;20458;-76
2021/12/20 10:51:52;;;;;;;7.78;2.33;;;;;;;0.54;100.00;102576.56;6300059;28;20048;-76
2021/12/20 10:54:54;;;;;;;2.33;1.45;;;;;;;0.57;100.00;102563.72;6301002;28;20048;-76
2021/12/20 10:58:16;;;;;;;2.80;1.73;;;;;;;0.60;100.00;102566.34;6300066;28;20052;-76
2021/12/20 11:01:24;;;;;;;5.40;2.10;;;;;;;0.67;100.00;102569.06;6300040;28;20045;-75
2021/12/20 11:04:28;;;;;;;4.22;2.38;;;;;;;0.74;100.00;102572.63;6301918;28;20198;-76
2021/12/20 11:10:49;;;;;;;3.38;1.70;;;;;;;0.90;100.00;102565.97;6300783;28;20482;-76
2021/12/20 11:13:51;;;;;;;4.70;2.53;;;;;;;0.95;100.00;102564.31;6301184;28;20059;-76
2021/12/20 11:16:55;;;;;;;2.40;1.40;;;;;;;0.99;100.00;102566.97;6299950;28;20040;-76
2021/12/20 11:19:58;;;;;;;3.55;1.80;;;;;;;1.09;100.00;102570.59;6301489;28;20048;-77
2021/12/20 11:23:03;;;;;;;2.38;1.58;;;;;;;1.25;100.00;102567.38;6300178;28;20131;-76
2021/12/20 11:26:04;;;;;;;2.38;1.50;;;;;;;1.35;100.00;102568.38;6300008;28;20044;-77
2021/12/20 11:29:07;;;;;;;7.97;2.50;;;;;;;1.55;100.00;102568.66;6299856;28;20059;-76
2021/12/20 11:32:10;;;;;;;8.52;1.85;;;;;;;1.66;100.00;102572.25;6299685;28;20049;-76
2021/12/20 11:35:11;;;;;;;2.97;1.58;;;;;;;1.63;100.00;102564.44;6289975;28;20419;-77
2021/12/20 11:38:13;;;;;;;3.15;1.48;;;;;;;1.61;100.00;102560.09;6284357;28;20518;-76
2021/12/20 11:41:14;;;;;;;3.80;2.38;;;;;;;1.60;100.00;102554.03;6299871;28;20060;-77
2021/12/20 11:44:19;;;;;;;4.55;2.45;;;;;;;1.59;100.00;102559.19;6299560;28;20048;-77
2021/12/20 11:47:28;;;;;;;3.35;1.98;;;;;;;1.59;100.00;102557.50;6296818;28;20048;-76
2021/12/20 11:50:33;;;;;;;3.35;2.42;;;;;;;1.66;100.00;102564.47;6297311;28;20049;-78
2021/12/20 11:53:36;;;;;;;4.18;1.70;;;;;;;1.83;100.00;102562.09;6299396;28;20056;-76
2021/12/20 11:56:38;;;;;;;10.05;2.17;;;;;;;1.94;100.00;102555.31;6299210;28;20050;-76
2021/12/20 11:59:51;;;;;;;5.32;2.00;;;;;;;2.10;100.00;102558.09;6299066;28;20048;-75
2021/12/20 12:02:55;;;;;;;2.25;1.48;;;;;;;2.28;100.00;102561.75;6299029;28;20106;-77
2021/12/20 12:05:58;;;;;;;5.32;2.22;;;;;;;2.46;100.00;102555.88;6296883;28;20044;-76
2021/12/20 12:09:02;;;;;;;10.00;2.13;;;;;;;2.58;100.00;102560.28;6289251;28;20045;-76
2021/12/20 12:12:25;;;;;;;7.30;1.73;;;;;;;2.69;100.00;102569.03;6285105;28;20052;-76
2021/12/20 12:15:39;;;;;;;2.25;1.58;;;;;;;2.79;100.00;102573.44;6286562;28;20044;-76
2021/12/20 12:18:48;;;;;;;3.13;1.48;;;;;;;2.87;100.00;102560.53;6281192;28;20045;-76
2021/12/20 12:21:50;;;;;;;8.10;1.88;;;;;;;2.93;100.00;102554.50;6273642;28;20048;-76
2021/12/20 12:24:51;;;;;;;5.55;2.00;;;;;;;2.98;100.00;102560.59;6274011;28;20041;-76
2021/12/20 12:27:59;;;;;;;6.88;2.08;;;;;;;2.91;100.00;102562.31;6273627;28;20052;-76
2021/12/20 12:31:04;;;;;;;5.25;1.85;;;;;;;2.89;100.00;102555.34;6273383;28;20049;-76
2021/12/20 12:34:06;;;;;;;5.38;1.52;;;;;;;2.86;100.00;102561.41;6297452;28;20048;-76
2021/12/20 12:37:20;;;;;;;2.83;1.38;;;;;;;2.83;100.00;102557.91;6298429;28;20130;-76
2021/12/20 12:40:25;;;;;;;10.63;1.88;;;;;;;2.76;100.00;102551.78;6298850;28;20075;-77
2021/12/20 12:43:49;;;;;;;2.95;1.75;;;;;;;2.72;100.00;102544.81;6300625;28;20657;-77
2021/12/20 12:46:58;;;;;;;4.88;1.15;;;;;;;2.66;100.00;102547.38;6298711;28;20055;-76
2021/12/20 12:50:00;;;;;;;3.60;2.20;;;;;;;2.53;100.00;102544.66;6296446;28;20046;-74
2021/12/20 12:53:02;;;;;;;2.05;1.27;;;;;;;2.56;100.00;102542.97;6295128;28;20496;-76
2021/12/20 12:56:30;;;;;;;3.75;1.27;;;;;;;2.57;100.00;102550.75;6297311;28;20419;-76
2021/12/20 12:59:32;;;;;;;0.77;0.68;;;;;;;2.63;100.00;102544.75;6290969;28;20048;-76
2021/12/20 13:02:38;;;;;;;4.47;0.80;;;;;;;2.70;100.00;102550.00;6296852;28;20048;-76
2021/12/20 13:05:40;;;;;;;5.18;1.45;;;;;;;2.74;100.00;102550.91;6295998;28;20048;-76
2021/12/20 13:08:50;;;;;;;2.10;1.00;;;;;;;2.78;100.00;102548.34;6283177;28;20060;-75
2021/12/20 13:12:09;;;;;;;2.97;1.00;;;;;;;2.77;100.00;102550.91;6272211;28;20056;-74
2021/12/20 13:15:16;;;;;;;4.00;1.17;;;;;;;2.77;100.00;102554.41;6272249;28;20044;-75
2021/12/20 13:18:27;;;;;;;3.85;0.88;;;;;;;2.86;100.00;102548.41;6272466;28;20207;-76
2021/12/20 13:21:48;;;;;;;2.45;1.40;;;;;;;2.93;100.00;102559.72;6272051;28;20052;-76
2021/12/20 13:24:54;;;;;;;2.33;0.95;;;;;;;2.91;100.00;102551.06;6272819;28;20211;-76
2021/12/20 13:27:57;;;;;;;2.60;1.08;;;;;;;2.92;100.00;102550.19;6271876;28;20052;-77
2021/12/20 13:31:00;;;;;;;2.22;1.08;;;;;;;2.89;100.00;102542.38;6272894;28;20041;-76
2021/12/20 13:34:04;;;;;;;2.75;1.15;;;;;;;2.89;100.00;102539.78;6272917;28;20052;-77
2021/12/20 13:37:07;;;;;;;1.83;1.02;;;;;;;2.89;100.00;102544.97;6273809;28;20059;-77
2021/12/20 13:40:08;;;;;;;2.03;1.23;;;;;;;2.85;100.00;102535.41;6293983;28;20052;-76
2021/12/20 13:43:10;;;;;;;2.42;1.55;;;;;;;2.82;100.00;102540.56;6296866;28;20051;-75
2021/12/20 13:46:16;;;;;;;2.53;1.05;;;;;;;2.84;100.00;102541.47;6295915;28;20055;-76
2021/12/20 13:49:26;;;;;;;0.52;0.40;;;;;;;2.80;100.00;102538.84;6298073;28;20044;-76
2021/12/20 13:52:29;;;;;;;1.63;0.70;;;;;;;2.81;100.00;102544.91;6296717;28;20052;-76
2021/12/20 13:55:30;;;;;;;4.00;1.05;;;;;;;2.81;100.00;102547.50;6296571;28;20115;-76
2021/12/20 13:58:32;;;;;;;4.13;0.90;;;;;;;2.78;100.00;102539.69;6287931;28;20067;-76
2021/12/20 14:01:34;;;;;;;6.03;0.70;;;;;;;2.78;100.00;102535.38;6282884;28;20049;-75
2021/12/20 14:04:39;;;;;;;1.15;0.77;;;;;;;2.85;100.00;102545.78;6291678;28;20056;-76
2021/12/20 14:07:45;;;;;;;3.45;1.00;;;;;;;2.90;100.00;102544.09;6283055;28;20097;-76
2021/12/20 14:10:46;;;;;;;1.33;0.90;;;;;;;2.89;100.00;102538.03;6296364;28;20125;-76
2021/12/20 14:13:47;;;;;;;3.85;1.60;;;;;;;2.91;100.00;102543.25;6295043;28;20056;-77
2021/12/20 14:16:55;;;;;;;2.25;0.63;;;;;;;2.94;100.00;102544.13;6293656;28;20044;-76
2021/12/20 14:20:05;;;;;;;4.53;1.10;;;;;;;2.93;100.00;102545.00;6293827;28;20082;-76
2021/12/20 14:23:08;;;;;;;3.05;1.08;;;;;;;2.89;100.00;102543.22;6296134;28;20049;-76
2021/12/20 14:26:12;;;;;;;1.90;1.15;;;;;;;2.78;100.00;102547.50;6295900;28;20492;-76